Time;durP1;ratioP1;P1;durP2;ratioP2;P2;SDS_P1;SDS_P2;PMS_P1;PMS_P2;Temp;Humidity;BMP_temperature;BMP_pressure;BME280_temperature;BME280_humidity;BME280_pressure;Samples;Min_cycle;Max_cycle;Signal;HPM_P1;HPM_P2
2023/12/13 00:06:00;;;;;;;10.45;2.50;;;;;;;-8.33;70.64;100498.34;5081358;28;20153;-73
2023/12/13 00:08:29;;;;;;;5.00;0.90;;;;;;;-8.58;70.73;100490.53;5083771;28;20435;-71
2023/12/13 00:14:38;;;;;;;5.43;0.98;;;;;;;-8.76;71.16;100403.31;5061081;28;20043;-74
2023/12/13 00:17:36;;;;;;;7.15;1.17;;;;;;;-8.78;70.39;100431.81;5066360;28;20108;-72
2023/12/13 00:20:20;;;;;;;9.23;2.55;;;;;;;-8.51;70.97;100496.94;5059038;28;20047;-71
2023/12/13 00:29:52;;;;;;;7.32;2.40;;;;;;;-8.59;70.73;100506.44;5088292;28;20078;-70
2023/12/13 00:32:37;;;;;;;;;;;;;;;-8.67;70.98;100502.44;5078612;28;20075;-71
2023/12/13 00:37:51;;;;;;;4.07;1.95;;;;;;;-9.15;70.20;100502.00;5094247;28;20517;-72
2023/12/13 00:40:22;;;;;;;7.25;1.55;;;;;;;-9.23;71.47;100450.97;5079223;28;20043;-73
2023/12/13 00:43:07;;;;;;;7.72;1.70;;;;;;;-8.88;70.19;100504.13;5081046;28;20121;-74
2023/12/13 00:45:54;;;;;;;5.28;1.77;;;;;;;-8.94;71.46;100482.69;5064488;28;20494;-72
2023/12/13 00:48:57;;;;;;;4.78;2.28;;;;;;;-9.45;71.10;100422.25;5081724;28;20039;-72
2023/12/13 00:54:30;;;;;;;4.65;1.30;;;;;;;-9.21;70.64;100495.59;5079271;28;20047;-72
2023/12/13 00:57:17;;;;;;;7.15;1.90;;;;;;;-9.03;70.55;100513.88;5078535;28;20040;-73
2023/12/13 00:59:47;;;;;;;4.72;1.83;;;;;;;-9.34;70.90;100460.94;5069434;28;20396;-74
2023/12/13 01:02:37;;;;;;;0.47;0.30;;;;;;;-9.08;71.41;100489.16;5042789;28;20043;-72
2023/12/13 01:05:03;;;;;;;9.95;1.90;;;;;;;-9.83;70.21;100368.03;5061247;28;20105;-72
2023/12/13 01:11:16;;;;;;;4.47;1.70;;;;;;;-9.10;70.17;100498.22;5077816;28;20521;-72
2023/12/13 01:17:07;;;;;;;2.58;0.95;;;;;;;-8.87;71.72;100506.78;5076723;28;20050;-72
2023/12/13 01:26:41;;;;;;;6.00;1.27;;;;;;;-9.15;71.87;100428.88;5078479;28;20082;-71
2023/12/13 01:32:48;;;;;;;9.70;1.65;;;;;;;-9.05;70.96;100469.97;5078753;28;20040;-75
2023/12/13 01:38:58;;;;;;;3.80;1.20;;;;;;;-9.31;71.31;100425.91;5065789;28;20042;-73
2023/12/13 01:41:59;;;;;;;7.63;1.23;;;;;;;-8.98;70.65;100502.53;5080522;28;20122;-72
2023/12/13 01:45:11;;;;;;;6.57;1.40;;;;;;;-9.23;70.75;100506.44;5082052;28;20090;-74
2023/12/13 01:48:24;;;;;;;4.38;1.25;;;;;;;-9.12;70.89;100514.00;5085926;28;20089;-75
2023/12/13 01:51:10;;;;;;;5.32;1.48;;;;;;;-9.17;70.99;100505.19;5085027;28;20064;-75
2023/12/13 01:53:56;;;;;;;4.10;0.98;;;;;;;-9.25;70.46;100484.41;5067822;28;20046;-75
2023/12/13 02:05:24;;;;;;;1.20;0.57;;;;;;;-9.08;70.81;100511.84;5089185;28;20127;-72
2023/12/13 02:07:53;;;;;;;1.35;0.77;;;;;;;-9.43;71.32;100424.16;5084100;28;20051;-72
2023/12/13 02:13:43;;;;;;;1.63;0.52;;;;;;;-8.93;70.27;100506.28;5085170;28;20469;-71
2023/12/13 02:16:34;;;;;;;2.25;0.68;;;;;;;-9.08;70.76;100511.84;5080193;28;20033;-73
2023/12/13 02:22:03;;;;;;;4.60;0.52;;;;;;;-9.01;70.82;100512.34;5085336;28;20036;-72
2023/12/13 02:25:07;;;;;;;5.90;1.55;;;;;;;-9.27;69.07;100514.53;5065552;28;20044;-73
2023/12/13 02:27:51;;;;;;;1.00;0.55;;;;;;;-9.76;70.70;100432.38;5083159;28;20036;-74
2023/12/13 02:30:40;;;;;;;6.30;1.52;;;;;;;-9.39;69.48;100478.22;5085405;28;20047;-75
2023/12/13 02:33:07;;;;;;;5.47;1.85;;;;;;;-9.46;69.92;100519.69;5066391;28;20046;-72
2023/12/13 02:39:21;;;;;;;0.52;0.52;;;;;;;-9.39;70.62;100529.53;5079913;28;20036;-71
2023/12/13 02:42:11;;;;;;;6.18;1.23;;;;;;;-9.49;69.54;100498.41;5043952;28;20400;-71
2023/12/13 02:44:38;;;;;;;3.85;1.00;;;;;;;-9.52;70.00;100501.53;5045831;28;20040;-72
2023/12/13 02:48:01;;;;;;;0.70;0.43;;;;;;;-9.39;70.39;100532.06;5064196;28;20123;-71
2023/12/13 02:51:04;;;;;;;5.95;1.95;;;;;;;-9.39;70.25;100544.66;5082152;28;20071;-72
2023/12/13 02:53:30;;;;;;;4.18;1.38;;;;;;;-9.74;69.67;100524.97;5069339;28;20111;-71
2023/12/13 02:56:20;;;;;;;4.18;1.20;;;;;;;-9.72;70.35;100538.56;5067038;28;20040;-73
2023/12/13 02:59:05;;;;;;;6.53;1.48;;;;;;;-10.39;70.05;100436.47;5064424;28;20094;-73
2023/12/13 03:01:31;;;;;;;4.07;1.50;;;;;;;-9.84;69.84;100542.59;5066408;28;20033;-74
2023/12/13 03:04:34;;;;;;;5.32;1.40;;;;;;;-9.96;70.03;100572.66;5079412;28;20101;-72
2023/12/13 03:07:19;;;;;;;4.38;1.27;;;;;;;-10.01;69.98;100587.34;5083439;28;20394;-73
2023/12/13 03:10:06;;;;;;;11.10;1.40;;;;;;;-10.63;70.80;100460.44;5064198;28;20048;-74
2023/12/13 03:12:33;;;;;;;3.10;0.93;;;;;;;-10.13;70.97;100523.38;5089425;28;20449;-72
2023/12/13 03:15:03;;;;;;;1.25;0.82;;;;;;;-9.96;70.80;100536.50;5082723;28;20132;-71
2023/12/13 03:17:48;;;;;;;5.88;1.45;;;;;;;-10.04;69.23;100549.31;5080276;28;20047;-71
2023/12/13 03:20:32;;;;;;;2.43;0.93;;;;;;;-10.69;70.44;100445.66;5079354;28;20047;-72
2023/12/13 03:23:58;;;;;;;0.70;0.43;;;;;;;-9.91;71.11;100553.75;5065192;28;20044;-73
2023/12/13 03:30:15;;;;;;;1.60;0.57;;;;;;;-9.97;71.33;100558.31;5064491;28;20110;-72
2023/12/13 03:32:41;;;;;;;1.70;0.50;;;;;;;-10.01;70.54;100546.19;5080298;28;20833;-73
2023/12/13 03:38:49;;;;;;;3.28;1.02;;;;;;;-10.29;69.95;100547.25;5084339;28;20028;-73
2023/12/13 03:41:34;;;;;;;4.75;0.82;;;;;;;-10.16;69.60;100553.31;5081367;28;20032;-73
2023/12/13 03:44:22;;;;;;;5.43;1.33;;;;;;;-10.23;69.81;100556.03;5067663;28;20037;-72
2023/12/13 03:47:09;;;;;;;6.97;2.33;;;;;;;-10.81;70.13;100453.03;5080160;28;20051;-73
2023/12/13 03:49:35;;;;;;;6.97;1.53;;;;;;;-10.61;70.46;100457.28;5049444;28;20032;-73
2023/12/13 03:52:23;;;;;;;6.90;1.80;;;;;;;-9.95;70.76;100533.22;5080578;28;20070;-73
2023/12/13 04:00:59;;;;;;;1.80;0.73;;;;;;;-10.18;69.74;100519.56;5078920;28;20040;-70
2023/12/13 04:06:52;;;;;;;12.80;1.33;;;;;;;-9.91;69.74;100543.69;5061121;28;20044;-72
2023/12/13 04:12:43;;;;;;;8.27;1.65;;;;;;;-10.16;69.85;100555.84;5076149;28;20055;-70
2023/12/13 04:15:30;;;;;;;1.80;0.53;;;;;;;-10.18;69.59;100540.59;5077780;28;20489;-70
2023/12/13 04:18:37;;;;;;;2.80;0.53;;;;;;;-10.21;69.86;100552.03;5062590;28;20040;-73
2023/12/13 04:21:06;;;;;;;4.03;1.33;;;;;;;-10.55;69.54;100484.59;5061245;28;20104;-71
2023/12/13 04:23:53;;;;;;;7.07;1.47;;;;;;;-10.99;69.57;100422.16;5074542;28;20040;-69
2023/12/13 04:26:39;;;;;;;5.63;2.17;;;;;;;-10.27;70.39;100542.31;5056946;28;20551;-72
2023/12/13 04:32:11;;;;;;;11.70;1.70;;;;;;;-10.14;69.24;100551.81;5078250;28;20059;-74
2023/12/13 04:34:37;;;;;;;9.00;0.90;;;;;;;-10.12;70.54;100547.78;5064459;28;20080;-76
2023/12/13 04:37:19;;;;;;;1.13;0.47;;;;;;;-10.65;70.29;100437.63;5066231;28;20535;-76
2023/12/13 04:39:53;;;;;;;2.20;1.13;;;;;;;-10.62;69.92;100469.75;5052727;28;20032;-73
2023/12/13 04:42:21;;;;;;;2.13;0.83;;;;;;;-10.32;70.06;100541.94;5080548;28;20888;-71
2023/12/13 04:44:53;;;;;;;8.40;1.97;;;;;;;-10.46;70.10;100498.00;5067007;28;20032;-74
2023/12/13 04:47:38;;;;;;;7.17;1.50;;;;;;;-10.87;69.13;100436.53;5079324;28;20275;-74
2023/12/13 04:59:37;;;;;;;3.20;0.23;;;;;;;-10.40;69.69;100563.06;5079626;28;20040;-72
2023/12/13 05:08:12;;;;;;;2.37;0.83;;;;;;;-10.42;68.40;100569.59;5061396;28;20036;-73
2023/12/13 05:10:58;;;;;;;4.63;1.10;;;;;;;-10.50;70.00;100565.53;5077165;28;20474;-72
2023/12/13 05:16:16;;;;;;;8.63;1.07;;;;;;;-10.42;69.93;100567.06;5078396;28;20032;-71
2023/12/13 05:19:22;;;;;;;8.10;1.73;;;;;;;-10.40;68.29;100568.09;5076842;28;20044;-73
2023/12/13 05:25:57;;;;;;;6.67;1.97;;;;;;;-10.47;68.20;100576.75;5081352;28;20040;-72
2023/12/13 05:28:47;;;;;;;4.03;1.40;;;;;;;-10.38;69.54;100574.13;5063471;28;20181;-70
2023/12/13 05:31:25;;;;;;;3.23;1.00;;;;;;;-10.18;69.52;100575.84;5056707;28;20055;-72
2023/12/13 05:37:38;;;;;;;4.63;1.23;;;;;;;-10.36;69.27;100584.31;5079623;28;20036;-72
2023/12/13 05:52:18;;;;;;;1.17;0.70;;;;;;;-11.82;69.18;100378.06;5083594;28;20543;-68
2023/12/13 06:00:44;;;;;;;3.63;0.98;;;;;;;-10.62;70.04;100550.25;5099279;28;20047;-70
2023/12/13 06:03:29;;;;;;;3.27;1.20;;;;;;;-10.52;69.42;100584.66;5085591;28;20040;-70
2023/12/13 06:09:18;;;;;;;16.23;2.97;;;;;;;-10.67;70.42;100537.25;5081643;28;20032;-70
2023/12/13 06:12:03;;;;;;;1.33;0.67;;;;;;;-10.24;70.25;100604.63;5080847;28;20067;-72
2023/12/13 06:17:54;;;;;;;6.77;1.23;;;;;;;-10.32;69.83;100577.19;5084452;28;20040;-71
2023/12/13 06:20:58;;;;;;;5.57;1.30;;;;;;;-10.24;70.27;100584.50;5082214;28;20039;-71
2023/12/13 06:26:47;;;;;;;;;;;;;;;-10.62;69.62;100591.38;5066022;28;20512;-71
2023/12/13 06:32:03;;;;;;;5.80;1.87;;;;;;;-10.66;69.16;100564.19;5068055;28;20052;-71
2023/12/13 06:34:56;;;;;;;7.27;1.47;;;;;;;-10.77;68.02;100595.06;5064660;28;20405;-71
2023/12/13 06:37:42;;;;;;;11.23;2.27;;;;;;;-10.83;69.18;100592.91;5068492;28;20049;-69
2023/12/13 06:43:16;;;;;;;7.63;1.33;;;;;;;-10.61;69.46;100598.19;5060458;28;20063;-70
2023/12/13 06:49:09;;;;;;;7.60;1.77;;;;;;;-10.74;68.90;100605.41;5073975;28;20040;-70
2023/12/13 06:51:56;;;;;;;0.85;0.80;;;;;;;-10.79;69.89;100576.44;5043428;28;20041;-70
2023/12/13 06:54:23;;;;;;;3.67;1.33;;;;;;;-10.85;68.56;100570.84;5065935;28;20146;-70
2023/12/13 06:57:19;;;;;;;8.13;2.17;;;;;;;-11.23;69.61;100512.28;5062843;28;20089;-71
2023/12/13 07:03:47;;;;;;;5.35;1.63;;;;;;;-10.55;69.86;100600.34;5074713;28;20043;-72
2023/12/13 07:06:32;;;;;;;5.43;1.60;;;;;;;-10.53;69.32;100616.47;5043626;28;20082;-70
2023/12/13 07:09:35;;;;;;;0.63;0.30;;;;;;;-10.88;69.96;100520.28;5074642;28;20204;-71
2023/12/13 07:12:27;;;;;;;13.93;2.00;;;;;;;-10.91;70.03;100500.78;5076676;28;20050;-68
2023/12/13 07:15:14;;;;;;;6.13;1.40;;;;;;;-10.66;68.51;100573.38;5061324;28;20047;-68
2023/12/13 07:20:52;;;;;;;2.00;1.20;;;;;;;-10.57;69.48;100565.75;5088307;28;20028;-68
2023/12/13 07:23:41;;;;;;;2.47;0.87;;;;;;;-10.42;69.93;100569.59;5085635;28;20048;-70
2023/12/13 07:26:44;;;;;;;6.80;1.37;;;;;;;-9.93;69.50;100607.28;5072094;28;20037;-68
2023/12/13 07:32:33;;;;;;;7.38;1.65;;;;;;;-10.42;69.36;100551.97;5081635;28;20045;-67
2023/12/13 07:35:03;;;;;;;5.57;1.08;;;;;;;-10.13;67.91;100609.84;5087176;28;20584;-65
2023/12/13 07:37:48;;;;;;;5.30;1.47;;;;;;;-10.22;68.17;100623.28;5093662;28;20046;-68
2023/12/13 07:40:54;;;;;;;4.72;1.52;;;;;;;-10.19;68.55;100632.00;5082881;28;20035;-70
2023/12/13 07:43:58;;;;;;;13.77;1.90;;;;;;;-10.22;67.93;100641.78;5073133;28;20091;-69
2023/12/13 07:46:42;;;;;;;5.30;0.77;;;;;;;-10.35;68.68;100616.28;5078084;28;20124;-68
2023/12/13 07:49:55;;;;;;;4.10;1.30;;;;;;;-10.83;68.75;100521.56;5088920;28;20036;-66
2023/12/13 07:55:51;;;;;;;0.63;0.37;;;;;;;-10.34;68.67;100586.22;5088373;28;20044;-66
2023/12/13 07:58:18;;;;;;;8.27;2.00;;;;;;;-10.55;68.28;100571.81;5070209;28;20059;-64
2023/12/13 08:00:44;;;;;;;16.43;3.37;;;;;;;-10.57;68.54;100556.56;5057348;28;20041;-68
2023/12/13 08:03:12;;;;;;;9.47;2.10;;;;;;;-10.51;68.04;100552.06;5086737;28;20102;-66
2023/12/13 08:05:38;;;;;;;2.27;0.97;;;;;;;-10.06;69.06;100623.88;5089639;28;20043;-68
2023/12/13 08:08:09;;;;;;;2.97;0.70;;;;;;;-10.39;68.75;100538.78;5087334;28;20450;-67
2023/12/13 08:10:35;;;;;;;3.42;1.20;;;;;;;-9.76;69.05;100622.19;5083922;28;20036;-67
2023/12/13 08:13:42;;;;;;;18.23;2.43;;;;;;;-9.91;68.14;100611.69;5084030;28;20040;-65
2023/12/13 08:17:04;;;;;;;4.20;0.97;;;;;;;-9.75;68.39;100621.44;5086310;28;20095;-66
2023/12/13 08:19:48;;;;;;;6.47;1.90;;;;;;;-9.77;66.87;100647.28;5092102;28;20060;-68
2023/12/13 08:22:17;;;;;;;2.35;1.05;;;;;;;-10.02;68.12;100585.59;5052700;28;21573;-79
2023/12/13 08:24:44;;;;;;;10.13;1.98;;;;;;;-9.79;67.99;100619.41;5089249;28;20104;-68
2023/12/13 08:27:11;;;;;;;10.52;1.75;;;;;;;-9.79;68.41;100613.50;5089633;28;20079;-70
2023/12/13 08:29:55;;;;;;;5.47;1.80;;;;;;;-9.89;68.05;100594.22;5083766;28;20048;-68
2023/12/13 08:35:59;;;;;;;5.45;1.08;;;;;;;-9.74;67.20;100615.66;5088380;28;20040;-68
2023/12/13 08:38:26;;;;;;;7.73;1.07;;;;;;;-9.77;67.91;100580.13;5087201;28;20040;-68
2023/12/13 08:41:14;;;;;;;4.82;0.98;;;;;;;-10.10;67.63;100527.78;5070660;28;20047;-68
2023/12/13 08:43:53;;;;;;;;;;;;;;;;;;;;;
2023/12/13 08:46:26;;;;;;;2.65;0.93;;;;;;;-9.76;67.43;100565.91;5064202;28;20103;-66
2023/12/13 08:48:52;;;;;;;11.93;2.33;;;;;;;-9.81;67.23;100567.16;5082185;28;20037;-69
2023/12/13 08:51:21;;;;;;;13.20;2.85;;;;;;;-9.52;67.34;100602.34;5104120;28;20067;-69
2023/12/13 08:53:56;;;;;;;6.05;1.42;;;;;;;-9.96;67.48;100503.75;5087530;28;20079;-71
2023/12/13 08:56:22;;;;;;;8.40;1.83;;;;;;;-9.71;66.23;100560.50;5087722;28;20044;-70
2023/12/13 08:58:49;;;;;;;1.30;1.00;;;;;;;-9.79;66.99;100565.66;5097749;28;20047;-66
2023/12/13 09:01:15;;;;;;;12.98;2.15;;;;;;;-9.74;66.91;100565.28;5070791;28;20036;-71
2023/12/13 09:03:41;;;;;;;13.30;2.73;;;;;;;-9.50;66.69;100610.94;5085704;28;20138;-70
2023/12/13 09:06:08;;;;;;;4.35;1.65;;;;;;;-9.57;66.61;100609.53;5092328;28;20055;-70
2023/12/13 09:08:34;;;;;;;5.00;1.40;;;;;;;-9.80;67.21;100569.78;5068978;28;20523;-74
2023/12/13 09:11:20;;;;;;;4.53;1.25;;;;;;;-10.55;65.85;100474.53;5051426;28;20086;-67
2023/12/13 09:13:49;;;;;;;1.58;0.90;;;;;;;-9.50;67.16;100605.91;5085498;28;20171;-67
2023/12/13 09:16:20;;;;;;;12.43;2.45;;;;;;;-9.81;65.70;100560.47;5066249;28;20087;-69
2023/12/13 09:18:46;;;;;;;5.22;1.15;;;;;;;-9.52;66.70;100630.09;5083476;28;20086;-67
2023/12/13 09:21:23;;;;;;;10.10;1.83;;;;;;;-9.54;65.92;100613.94;5070375;28;20041;-69
2023/12/13 09:23:49;;;;;;;13.02;2.70;;;;;;;-9.54;66.37;100597.19;5098912;28;20437;-67
2023/12/13 09:26:17;;;;;;;13.70;2.30;;;;;;;-9.79;67.28;100516.13;5084896;28;20056;-73
2023/12/13 09:28:45;;;;;;;6.95;1.40;;;;;;;-9.18;65.30;100630.41;5045096;28;20462;-67
2023/12/13 09:31:12;;;;;;;20.58;1.50;;;;;;;-9.40;66.72;100559.66;5084770;28;20076;-66
2023/12/13 09:33:38;;;;;;;2.95;1.42;;;;;;;-9.07;65.84;100608.59;5082326;28;20036;-67
2023/12/13 09:36:07;;;;;;;9.73;1.90;;;;;;;-9.25;65.53;100580.22;5077635;28;20066;-69
2023/12/13 09:38:33;;;;;;;11.82;2.13;;;;;;;-9.41;64.45;100596.59;5094655;28;20438;-66
2023/12/13 09:41:02;;;;;;;3.30;1.20;;;;;;;-9.30;65.74;100619.28;5067316;28;20485;-66
2023/12/13 09:43:28;;;;;;;3.97;0.85;;;;;;;-9.43;65.76;100602.25;5091710;28;20048;-66
2023/12/13 09:45:56;;;;;;;8.48;2.08;;;;;;;-9.34;65.15;100594.56;5084248;28;20045;-65
2023/12/13 09:48:24;;;;;;;10.32;1.75;;;;;;;-9.33;65.12;100611.47;5084204;28;20058;-68
2023/12/13 09:50:59;;;;;;;2.85;0.47;;;;;;;-9.70;66.14;100543.72;5084224;28;20043;-66
2023/12/13 09:53:32;;;;;;;7.40;1.85;;;;;;;-9.25;65.29;100603.78;5085459;28;20072;-67
2023/12/13 09:55:58;;;;;;;5.40;1.50;;;;;;;-9.40;64.67;100617.63;5068653;28;20058;-67
2023/12/13 09:58:26;;;;;;;2.80;1.08;;;;;;;-9.56;64.92;100597.81;5065270;28;20071;-68
2023/12/13 10:00:56;;;;;;;3.97;1.33;;;;;;;-9.69;65.55;100585.81;5059717;28;20641;-68
2023/12/13 10:03:22;;;;;;;1.02;0.55;;;;;;;-9.77;65.72;100522.19;5082953;28;20043;-69
2023/12/13 10:05:48;;;;;;;6.70;2.33;;;;;;;-9.49;63.82;100607.66;5084196;28;20054;-66
2023/12/13 10:08:16;;;;;;;5.18;1.48;;;;;;;-9.61;64.10;100604.13;5088241;28;20098;-66
2023/12/13 10:10:47;;;;;;;12.75;2.17;;;;;;;-9.70;64.37;100600.06;5090362;28;20089;-66
2023/12/13 10:13:25;;;;;;;11.80;2.42;;;;;;;-9.75;64.38;100603.81;5072226;28;20036;-70
2023/12/13 10:15:52;;;;;;;6.80;0.88;;;;;;;-10.45;65.63;100473.69;5072303;28;20043;-67
2023/12/13 10:18:19;;;;;;;9.00;2.05;;;;;;;-10.32;64.89;100485.66;5084981;28;20040;-66
2023/12/13 10:20:51;;;;;;;7.25;1.95;;;;;;;-9.94;63.56;100592.94;5089329;28;20058;-65
2023/12/13 10:23:17;;;;;;;5.88;1.55;;;;;;;-9.73;65.25;100603.97;5089704;28;20047;-65
2023/12/13 10:25:44;;;;;;;7.10;1.20;;;;;;;-9.70;65.34;100600.06;5089961;28;20036;-64
2023/12/13 10:28:11;;;;;;;12.30;2.20;;;;;;;-9.75;64.28;100613.91;5091380;28;20474;-66
2023/12/13 10:30:37;;;;;;;11.73;3.10;;;;;;;-9.87;64.76;100568.38;5045133;28;20048;-66
2023/12/13 10:33:04;;;;;;;17.38;2.90;;;;;;;-10.13;64.73;100500.72;5090135;28;20012;-64
2023/12/13 10:35:31;;;;;;;7.38;1.20;;;;;;;-9.83;63.78;100582.16;5071158;28;20123;-65
2023/12/13 10:38:06;;;;;;;8.77;1.92;;;;;;;-10.21;64.38;100544.47;5070500;28;20032;-64
2023/12/13 10:40:35;;;;;;;5.47;3.03;;;;;;;-10.16;64.16;100563.38;5073251;28;20097;-65
2023/12/13 10:43:04;;;;;;;1.00;0.82;;;;;;;-10.15;65.83;100523.22;5091523;28;20032;-64
2023/12/13 10:45:31;;;;;;;10.57;1.63;;;;;;;-9.50;64.98;100607.56;5088408;28;20051;-65
2023/12/13 10:48:10;;;;;;;15.57;2.55;;;;;;;-9.50;64.23;100626.06;5085917;28;20044;-64
2023/12/13 10:50:39;;;;;;;5.05;1.48;;;;;;;-9.95;63.87;100573.53;5087352;28;20040;-65
2023/12/13 10:53:19;;;;;;;;;;;;;;;;;;;;;
2023/12/13 10:55:53;;;;;;;4.78;1.20;;;;;;;-9.87;64.78;100570.91;5090973;28;20080;-66
2023/12/13 10:58:20;;;;;;;6.20;1.95;;;;;;;-9.54;64.98;100635.00;5077787;28;20047;-65
2023/12/13 11:00:48;;;;;;;6.10;1.63;;;;;;;-9.54;64.51;100601.34;5084012;28;20041;-66
2023/12/13 11:03:31;;;;;;;17.55;3.20;;;;;;;-9.51;65.71;100553.72;5092483;28;20048;-69
2023/12/13 11:05:57;;;;;;;5.15;1.80;;;;;;;-9.39;63.96;100617.78;5083812;28;20040;-65
2023/12/13 11:08:25;;;;;;;7.10;1.52;;;;;;;-9.70;64.32;100573.97;5084255;28;20123;-64
2023/12/13 11:11:02;;;;;;;13.18;2.15;;;;;;;-9.38;64.82;100614.47;5087446;28;20068;-70
2023/12/13 11:13:49;;;;;;;10.93;2.58;;;;;;;-9.31;65.00;100569.59;5082771;28;20041;-75
2023/12/13 11:16:20;;;;;;;4.30;1.48;;;;;;;-9.17;63.52;100618.66;5064574;28;20525;-70
2023/12/13 11:18:55;;;;;;;7.10;1.20;;;;;;;-9.52;63.91;100571.25;5086709;28;20240;-69
2023/12/13 11:21:52;;;;;;;4.68;1.00;;;;;;;-9.30;64.74;100597.50;5065719;28;20031;-68
2023/12/13 11:24:25;;;;;;;6.82;1.17;;;;;;;-9.24;63.43;100604.69;5082270;28;20532;-67
2023/12/13 11:27:13;;;;;;;11.60;2.90;;;;;;;-9.33;64.89;100574.53;5083940;28;20058;-67
2023/12/13 11:29:47;;;;;;;7.85;1.48;;;;;;;-9.38;64.38;100574.13;5067316;28;20052;-68
2023/12/13 11:32:35;;;;;;;10.00;1.67;;;;;;;-9.05;64.22;100609.63;5057554;28;20068;-68
2023/12/13 11:35:12;;;;;;;4.00;1.38;;;;;;;-9.54;65.03;100533.28;5057785;28;20032;-68
2023/12/13 11:37:51;;;;;;;10.30;2.38;;;;;;;-9.00;64.16;100610.84;5066938;28;20075;-68
2023/12/13 11:40:18;;;;;;;6.85;1.27;;;;;;;-9.34;63.81;100587.00;5083654;28;20045;-68
2023/12/13 11:42:45;;;;;;;7.57;1.67;;;;;;;-9.36;63.00;100609.56;5085295;28;20456;-68
2023/12/13 11:45:20;;;;;;;7.93;2.08;;;;;;;-9.63;63.88;100619.09;5082295;28;20512;-66
2023/12/13 11:47:51;;;;;;;13.55;1.90;;;;;;;-9.71;63.54;100603.34;5079953;28;20413;-68
2023/12/13 11:50:19;;;;;;;4.53;1.27;;;;;;;-9.80;63.73;100610.09;5084014;28;20110;-70
2023/12/13 11:52:54;;;;;;;4.85;1.00;;;;;;;-10.23;64.32;100536.81;5086048;28;20131;-69
2023/12/13 11:55:20;;;;;;;21.42;3.40;;;;;;;-9.73;63.81;100616.56;5072447;28;20093;-69
2023/12/13 11:57:48;;;;;;;7.80;1.95;;;;;;;-9.73;63.52;100612.38;5068003;28;20044;-69
2023/12/13 12:00:18;;;;;;;11.77;3.42;;;;;;;-10.55;63.59;100497.19;5067258;28;20493;-69
2023/12/13 12:02:45;;;;;;;4.72;1.75;;;;;;;-9.99;63.83;100593.41;5085047;28;20040;-70
2023/12/13 12:05:14;;;;;;;8.38;2.08;;;;;;;-10.23;63.31;100578.69;5067159;28;20105;-68
2023/12/13 12:07:40;;;;;;;7.75;2.53;;;;;;;-10.72;63.26;100520.91;5073791;28;20032;-69
2023/12/13 12:10:07;;;;;;;4.63;1.50;;;;;;;-10.07;63.77;100628.75;5082518;28;20082;-69
2023/12/13 12:12:36;;;;;;;1.65;0.68;;;;;;;-10.06;64.84;100595.28;5079461;28;20387;-68
2023/12/13 12:15:07;;;;;;;8.60;1.75;;;;;;;-9.82;64.02;100623.31;5080579;28;20037;-68
2023/12/13 12:17:34;;;;;;;17.48;3.15;;;;;;;-10.07;64.69;100583.44;5084213;28;20068;-69
2023/12/13 12:20:04;;;;;;;7.30;1.30;;;;;;;-9.75;64.59;100597.91;5087484;28;20040;-70
2023/12/13 12:22:33;;;;;;;5.47;1.55;;;;;;;-10.01;63.62;100579.81;5069419;28;20042;-69
2023/12/13 12:25:08;;;;;;;4.18;1.75;;;;;;;-9.81;64.11;100625.09;5086580;28;20036;-69
2023/12/13 12:27:35;;;;;;;13.97;2.53;;;;;;;-10.30;63.94;100600.84;5083904;28;20089;-69
2023/12/13 12:30:03;;;;;;;7.50;1.63;;;;;;;-10.40;63.80;100593.25;5081881;28;20075;-69
2023/12/13 12:32:30;;;;;;;9.50;2.93;;;;;;;-9.89;64.80;100635.38;5082807;28;20048;-68
2023/12/13 12:35:02;;;;;;;2.85;0.88;;;;;;;-9.70;64.68;100627.78;5065020;28;20040;-69
2023/12/13 12:37:29;;;;;;;12.23;2.15;;;;;;;-9.91;64.07;100625.94;5083391;28;20036;-67
2023/12/13 12:39:55;;;;;;;4.90;1.65;;;;;;;-10.58;63.06;100534.66;5083110;28;20041;-68
2023/12/13 12:42:21;;;;;;;11.05;1.55;;;;;;;-10.14;63.58;100624.84;5094073;28;20071;-67
2023/12/13 12:44:50;;;;;;;1.77;1.10;;;;;;;-10.18;63.99;100626.22;5082877;28;20032;-70
2023/12/13 12:47:16;;;;;;;9.57;1.87;;;;;;;-10.74;62.88;100557.63;5066401;28;20069;-66
2023/12/13 12:53:06;;;;;;;3.13;1.47;;;;;;;-10.29;63.90;100637.88;5080821;28;20509;-68
2023/12/13 12:56:13;;;;;;;5.40;1.38;;;;;;;-10.23;63.47;100655.13;5085197;28;20090;-66
2023/12/13 12:58:58;;;;;;;10.70;2.10;;;;;;;-10.60;63.34;100611.66;5095102;28;20060;-73
2023/12/13 13:11:46;;;;;;;14.83;2.80;;;;;;;-10.44;62.66;100606.31;5068593;28;20456;-68
2023/12/13 13:17:56;;;;;;;7.27;1.77;;;;;;;-10.54;63.84;100633.97;5084109;28;20059;-68
2023/12/13 13:20:46;;;;;;;3.97;2.20;;;;;;;-10.42;63.53;100669.41;5081239;28;20070;-67
2023/12/13 13:26:37;;;;;;;19.40;2.93;;;;;;;-11.10;62.50;100586.25;5075852;28;21852;-68
2023/12/13 13:42:03;;;;;;;6.57;1.97;;;;;;;-11.42;62.90;100552.44;5098351;28;20508;-69
2023/12/13 13:48:30;;;;;;;1.80;1.02;;;;;;;-10.49;63.04;100673.00;5086828;28;20036;-70
2023/12/13 13:50:56;;;;;;;5.20;0.97;;;;;;;-10.52;63.62;100633.34;5088979;28;20036;-71
2023/12/13 13:53:42;;;;;;;5.17;1.10;;;;;;;-10.67;62.30;100626.97;5090664;28;20044;-75
2023/12/13 13:56:51;;;;;;;9.00;1.93;;;;;;;-10.32;63.09;100675.34;5088547;28;20044;-69
2023/12/13 13:59:36;;;;;;;1.00;0.70;;;;;;;-10.35;62.62;100669.13;5085992;28;20044;-69
2023/12/13 14:05:25;;;;;;;10.37;1.73;;;;;;;-10.41;62.70;100668.66;5085728;28;20111;-70
2023/12/13 14:08:13;;;;;;;16.20;2.90;;;;;;;-10.65;63.38;100620.44;5098999;28;20463;-72
2023/12/13 14:10:58;;;;;;;14.10;2.13;;;;;;;-10.43;62.99;100650.00;5087879;28;20052;-72
2023/12/13 14:17:06;;;;;;;10.77;2.10;;;;;;;-10.01;63.70;100665.44;5088470;28;20036;-71
2023/12/13 14:22:43;;;;;;;3.47;1.47;;;;;;;-10.58;62.55;100630.28;5082153;28;20040;-68
2023/12/13 14:25:53;;;;;;;8.60;2.17;;;;;;;-10.17;63.30;100677.44;5086545;28;20044;-68
2023/12/13 14:28:38;;;;;;;4.87;1.70;;;;;;;-10.34;62.70;100684.41;5084642;28;20133;-67
2023/12/13 14:31:24;;;;;;;3.60;1.00;;;;;;;-10.46;62.77;100663.19;5082064;28;20051;-66
2023/12/13 14:34:18;;;;;;;16.63;2.43;;;;;;;-10.85;62.55;100624.56;5086549;28;20047;-68
2023/12/13 14:37:10;;;;;;;3.20;0.97;;;;;;;-10.79;62.89;100621.72;5085110;28;20036;-68
2023/12/13 14:39:39;;;;;;;17.30;3.03;;;;;;;-10.72;62.71;100648.28;5065993;28;20037;-69
2023/12/13 14:42:07;;;;;;;5.73;1.13;;;;;;;-10.80;62.18;100619.94;5055943;28;20174;-66
2023/12/13 14:44:36;;;;;;;2.90;0.97;;;;;;;-10.43;61.99;100673.53;5084127;28;20062;-67
2023/12/13 14:47:04;;;;;;;3.83;1.87;;;;;;;-10.26;62.44;100697.66;5081280;28;20147;-68
2023/12/13 14:49:33;;;;;;;0.98;0.47;;;;;;;-10.38;62.02;100687.38;5082208;28;20051;-68
2023/12/13 14:51:59;;;;;;;12.10;1.63;;;;;;;-10.53;62.57;100666.78;5085129;28;20041;-69
2023/12/13 14:54:25;;;;;;;6.43;1.50;;;;;;;-10.74;61.87;100630.56;5081024;28;20067;-69
2023/12/13 14:56:51;;;;;;;6.70;1.93;;;;;;;-10.54;62.33;100691.84;5066114;28;20509;-69
2023/12/13 14:59:23;;;;;;;7.60;1.97;;;;;;;-10.44;62.56;100679.31;5081070;28;20113;-66
2023/12/13 15:02:06;;;;;;;11.10;1.93;;;;;;;-10.45;63.03;100658.31;5083177;28;20064;-67
2023/12/13 15:04:39;;;;;;;7.60;1.77;;;;;;;-10.15;61.72;100691.06;5070782;28;20048;-67
2023/12/13 15:07:35;;;;;;;2.10;0.60;;;;;;;-10.33;62.41;100691.19;5084997;28;20043;-67
2023/12/13 15:10:32;;;;;;;16.67;2.00;;;;;;;-10.53;61.56;100678.50;5081448;28;20054;-69
2023/12/13 15:13:17;;;;;;;4.90;1.57;;;;;;;-10.28;62.65;100699.16;5085693;28;20047;-68
2023/12/13 15:15:44;;;;;;;3.83;1.27;;;;;;;-10.90;62.39;100573.84;5086563;28;20492;-68
2023/12/13 15:27:16;;;;;;;5.27;0.90;;;;;;;-11.32;61.57;100576.78;5018489;28;20125;-67
2023/12/13 15:29:55;;;;;;;22.00;3.20;;;;;;;-10.90;62.13;100620.75;5010044;28;20041;-68
2023/12/13 15:32:44;;;;;;;11.50;1.90;;;;;;;-10.42;61.11;100695.44;4999237;28;20049;-69
2023/12/13 15:35:29;;;;;;;22.50;3.83;;;;;;;-10.25;62.54;100683.41;5017743;28;20041;-68
2023/12/13 15:37:58;;;;;;;1.23;0.50;;;;;;;-10.38;62.79;100652.16;5006296;28;20065;-67
2023/12/13 15:40:43;;;;;;;1.53;0.40;;;;;;;-10.17;62.19;100692.53;4985713;28;20060;-66
2023/12/13 15:43:13;;;;;;;2.47;1.20;;;;;;;-10.87;62.32;100563.19;4992559;28;20080;-68
2023/12/13 15:45:47;;;;;;;2.53;1.38;;;;;;;-10.56;63.04;100610.28;5010131;28;20145;-69
2023/12/13 15:48:50;;;;;;;8.45;1.70;;;;;;;-10.48;62.94;100580.03;5000719;28;20101;-67